sensor_id;sensor_type;location;lat;lon;timestamp;temperature;humidity
37806;DHT22;25082;50.870;0.022;2024-02-21T00:00:51;19.60;65.70
37806;DHT22;25082;50.870;0.022;2024-02-21T00:03:17;19.60;65.60
37806;DHT22;25082;50.870;0.022;2024-02-21T00:05:43;19.60;65.60
37806;DHT22;25082;50.870;0.022;2024-02-21T00:08:09;19.50;66.10
37806;DHT22;25082;50.870;0.022;2024-02-21T00:10:35;19.60;65.50
37806;DHT22;25082;50.870;0.022;2024-02-21T00:13:01;19.50;65.40
37806;DHT22;25082;50.870;0.022;2024-02-21T00:15:27;19.50;65.50
37806;DHT22;25082;50.870;0.022;2024-02-21T00:17:53;19.50;65.30
37806;DHT22;25082;50.870;0.022;2024-02-21T00:20:19;19.50;65.30
37806;DHT22;25082;50.870;0.022;2024-02-21T00:22:45;19.50;65.40
37806;DHT22;25082;50.870;0.022;2024-02-21T00:25:11;19.50;65.30
37806;DHT22;25082;50.870;0.022;2024-02-21T00:27:37;19.50;65.30
37806;DHT22;25082;50.870;0.022;2024-02-21T00:30:04;19.50;65.20
37806;DHT22;25082;50.870;0.022;2024-02-21T00:32:30;19.50;65.30
37806;DHT22;25082;50.870;0.022;2024-02-21T00:34:57;19.50;65.30
37806;DHT22;25082;50.870;0.022;2024-02-21T00:37:23;19.50;65.20
37806;DHT22;25082;50.870;0.022;2024-02-21T00:39:49;19.50;65.20
37806;DHT22;25082;50.870;0.022;2024-02-21T00:42:14;19.50;65.10
37806;DHT22;25082;50.870;0.022;2024-02-21T00:44:40;19.50;65.10
37806;DHT22;25082;50.870;0.022;2024-02-21T00:47:06;19.40;65.00
37806;DHT22;25082;50.870;0.022;2024-02-21T00:49:32;19.40;65.00
37806;DHT22;25082;50.870;0.022;2024-02-21T00:51:58;19.40;65.00
37806;DHT22;25082;50.870;0.022;2024-02-21T00:54:23;19.40;65.00
37806;DHT22;25082;50.870;0.022;2024-02-21T00:56:49;19.40;65.10
37806;DHT22;25082;50.870;0.022;2024-02-21T00:59:15;19.40;65.10
37806;DHT22;25082;50.870;0.022;2024-02-21T01:01:41;19.40;65.00
37806;DHT22;25082;50.870;0.022;2024-02-21T01:04:09;19.40;65.00
37806;DHT22;25082;50.870;0.022;2024-02-21T01:06:35;19.40;65.00
37806;DHT22;25082;50.870;0.022;2024-02-21T01:09:01;19.40;65.00
37806;DHT22;25082;50.870;0.022;2024-02-21T01:11:27;19.40;65.00
37806;DHT22;25082;50.870;0.022;2024-02-21T01:13:53;19.40;64.90
37806;DHT22;25082;50.870;0.022;2024-02-21T01:16:20;19.40;64.90
37806;DHT22;25082;50.870;0.022;2024-02-21T01:18:46;19.40;64.80
37806;DHT22;25082;50.870;0.022;2024-02-21T01:21:12;19.40;64.80
37806;DHT22;25082;50.870;0.022;2024-02-21T01:23:37;19.30;64.80
37806;DHT22;25082;50.870;0.022;2024-02-21T01:26:04;19.30;64.90
37806;DHT22;25082;50.870;0.022;2024-02-21T01:28:30;19.30;64.70
37806;DHT22;25082;50.870;0.022;2024-02-21T01:30:57;19.30;64.60
37806;DHT22;25082;50.870;0.022;2024-02-21T01:33:22;19.30;64.60
37806;DHT22;25082;50.870;0.022;2024-02-21T01:35:48;19.30;64.60
37806;DHT22;25082;50.870;0.022;2024-02-21T01:38:15;19.30;64.60
37806;DHT22;25082;50.870;0.022;2024-02-21T01:40:41;19.30;64.60
37806;DHT22;25082;50.870;0.022;2024-02-21T01:43:16;19.30;64.60
37806;DHT22;25082;50.870;0.022;2024-02-21T01:45:45;19.30;64.60
37806;DHT22;25082;50.870;0.022;2024-02-21T01:48:12;19.30;64.60
37806;DHT22;25082;50.870;0.022;2024-02-21T01:50:38;19.20;64.40
37806;DHT22;25082;50.870;0.022;2024-02-21T01:53:05;19.30;64.50
37806;DHT22;25082;50.870;0.022;2024-02-21T01:55:31;19.30;64.50
37806;DHT22;25082;50.870;0.022;2024-02-21T01:57:57;19.20;64.40
37806;DHT22;25082;50.870;0.022;2024-02-21T02:00:23;19.20;64.40
37806;DHT22;25082;50.870;0.022;2024-02-21T02:02:49;19.20;64.40
37806;DHT22;25082;50.870;0.022;2024-02-21T02:05:16;19.20;64.30
37806;DHT22;25082;50.870;0.022;2024-02-21T02:07:44;19.20;64.30
37806;DHT22;25082;50.870;0.022;2024-02-21T02:10:11;19.20;64.30
37806;DHT22;25082;50.870;0.022;2024-02-21T02:12:36;19.20;64.30
37806;DHT22;25082;50.870;0.022;2024-02-21T02:15:03;19.30;64.30
37806;DHT22;25082;50.870;0.022;2024-02-21T02:17:32;19.20;64.30
37806;DHT22;25082;50.870;0.022;2024-02-21T02:19:58;19.20;64.70
37806;DHT22;25082;50.870;0.022;2024-02-21T02:22:28;19.20;64.10
37806;DHT22;25082;50.870;0.022;2024-02-21T02:24:54;19.20;64.20
37806;DHT22;25082;50.870;0.022;2024-02-21T02:27:20;19.20;64.20
37806;DHT22;25082;50.870;0.022;2024-02-21T02:29:48;19.20;64.20
37806;DHT22;25082;50.870;0.022;2024-02-21T02:32:14;19.20;64.20
37806;DHT22;25082;50.870;0.022;2024-02-21T02:34:40;19.10;64.10
37806;DHT22;25082;50.870;0.022;2024-02-21T02:37:06;19.20;64.10
37806;DHT22;25082;50.870;0.022;2024-02-21T02:39:32;19.20;64.00
37806;DHT22;25082;50.870;0.022;2024-02-21T02:41:57;19.20;64.00
37806;DHT22;25082;50.870;0.022;2024-02-21T02:44:23;19.10;64.00
37806;DHT22;25082;50.870;0.022;2024-02-21T02:46:49;19.10;63.90
37806;DHT22;25082;50.870;0.022;2024-02-21T02:49:15;19.10;63.90
37806;DHT22;25082;50.870;0.022;2024-02-21T02:51:42;19.10;64.40
37806;DHT22;25082;50.870;0.022;2024-02-21T02:54:09;19.10;63.90
37806;DHT22;25082;50.870;0.022;2024-02-21T02:56:34;19.10;63.90
37806;DHT22;25082;50.870;0.022;2024-02-21T02:59:00;19.10;63.80
37806;DHT22;25082;50.870;0.022;2024-02-21T03:01:26;19.10;63.80
37806;DHT22;25082;50.870;0.022;2024-02-21T03:03:53;19.10;63.80
37806;DHT22;25082;50.870;0.022;2024-02-21T03:06:19;19.10;63.80
37806;DHT22;25082;50.870;0.022;2024-02-21T03:08:45;19.10;63.80
37806;DHT22;25082;50.870;0.022;2024-02-21T03:11:11;19.10;63.80
37806;DHT22;25082;50.870;0.022;2024-02-21T03:13:36;19.10;63.80
37806;DHT22;25082;50.870;0.022;2024-02-21T03:16:02;19.10;63.90
37806;DHT22;25082;50.870;0.022;2024-02-21T03:18:28;19.00;63.70
37806;DHT22;25082;50.870;0.022;2024-02-21T03:20:54;19.00;63.70
37806;DHT22;25082;50.870;0.022;2024-02-21T03:23:20;19.00;63.70
37806;DHT22;25082;50.870;0.022;2024-02-21T03:25:45;19.00;63.80
37806;DHT22;25082;50.870;0.022;2024-02-21T03:28:11;19.00;63.70
37806;DHT22;25082;50.870;0.022;2024-02-21T03:30:37;19.00;63.70
37806;DHT22;25082;50.870;0.022;2024-02-21T03:33:03;19.00;63.70
37806;DHT22;25082;50.870;0.022;2024-02-21T03:35:29;19.00;63.70
37806;DHT22;25082;50.870;0.022;2024-02-21T03:37:54;19.00;63.70
37806;DHT22;25082;50.870;0.022;2024-02-21T03:40:20;19.00;63.70
37806;DHT22;25082;50.870;0.022;2024-02-21T03:42:46;19.00;63.70
37806;DHT22;25082;50.870;0.022;2024-02-21T03:45:12;19.00;63.70
37806;DHT22;25082;50.870;0.022;2024-02-21T03:47:38;19.00;63.60
37806;DHT22;25082;50.870;0.022;2024-02-21T03:50:04;19.00;63.70
37806;DHT22;25082;50.870;0.022;2024-02-21T03:52:30;19.00;64.30
37806;DHT22;25082;50.870;0.022;2024-02-21T03:54:56;19.00;63.70
37806;DHT22;25082;50.870;0.022;2024-02-21T03:57:22;19.00;63.60
37806;DHT22;25082;50.870;0.022;2024-02-21T03:59:50;19.00;63.70
37806;DHT22;25082;50.870;0.022;2024-02-21T04:02:17;19.00;63.70
37806;DHT22;25082;50.870;0.022;2024-02-21T04:04:46;19.00;63.60
37806;DHT22;25082;50.870;0.022;2024-02-21T04:07:14;19.00;63.60
37806;DHT22;25082;50.870;0.022;2024-02-21T04:09:40;18.90;63.70
37806;DHT22;25082;50.870;0.022;2024-02-21T04:12:07;18.90;63.50
37806;DHT22;25082;50.870;0.022;2024-02-21T04:14:33;18.90;63.40
37806;DHT22;25082;50.870;0.022;2024-02-21T04:17:00;18.90;63.40
37806;DHT22;25082;50.870;0.022;2024-02-21T04:19:26;18.90;63.40
37806;DHT22;25082;50.870;0.022;2024-02-21T04:21:52;18.90;63.40
37806;DHT22;25082;50.870;0.022;2024-02-21T04:24:17;18.90;63.40
37806;DHT22;25082;50.870;0.022;2024-02-21T04:26:43;18.90;63.40
37806;DHT22;25082;50.870;0.022;2024-02-21T04:29:09;18.90;63.40
37806;DHT22;25082;50.870;0.022;2024-02-21T04:31:35;18.90;63.50
37806;DHT22;25082;50.870;0.022;2024-02-21T04:34:01;18.90;63.50
37806;DHT22;25082;50.870;0.022;2024-02-21T04:36:28;18.90;63.60
37806;DHT22;25082;50.870;0.022;2024-02-21T04:38:54;18.90;63.50
37806;DHT22;25082;50.870;0.022;2024-02-21T04:41:19;18.90;63.40
37806;DHT22;25082;50.870;0.022;2024-02-21T04:43:48;18.90;63.60
37806;DHT22;25082;50.870;0.022;2024-02-21T04:46:14;18.90;63.40
37806;DHT22;25082;50.870;0.022;2024-02-21T04:48:41;18.90;63.50
37806;DHT22;25082;50.870;0.022;2024-02-21T04:51:06;18.80;63.50
37806;DHT22;25082;50.870;0.022;2024-02-21T04:53:32;18.90;63.60
37806;DHT22;25082;50.870;0.022;2024-02-21T04:55:58;18.90;63.40
37806;DHT22;25082;50.870;0.022;2024-02-21T04:58:24;18.90;63.40
37806;DHT22;25082;50.870;0.022;2024-02-21T05:00:51;18.80;63.40
37806;DHT22;25082;50.870;0.022;2024-02-21T05:03:17;18.80;63.40
37806;DHT22;25082;50.870;0.022;2024-02-21T05:05:42;18.80;63.40
37806;DHT22;25082;50.870;0.022;2024-02-21T05:08:09;18.80;63.40
37806;DHT22;25082;50.870;0.022;2024-02-21T05:10:36;18.80;63.40
37806;DHT22;25082;50.870;0.022;2024-02-21T05:13:02;18.80;63.50
37806;DHT22;25082;50.870;0.022;2024-02-21T05:15:28;18.80;63.40
37806;DHT22;25082;50.870;0.022;2024-02-21T05:17:53;18.80;63.40
37806;DHT22;25082;50.870;0.022;2024-02-21T05:20:19;18.70;63.30
37806;DHT22;25082;50.870;0.022;2024-02-21T05:22:45;18.80;63.30
37806;DHT22;25082;50.870;0.022;2024-02-21T05:25:11;18.80;63.50
37806;DHT22;25082;50.870;0.022;2024-02-21T05:27:36;18.80;63.40
37806;DHT22;25082;50.870;0.022;2024-02-21T05:30:04;18.80;63.40
37806;DHT22;25082;50.870;0.022;2024-02-21T05:32:32;18.80;63.40
37806;DHT22;25082;50.870;0.022;2024-02-21T05:34:57;18.80;63.40
37806;DHT22;25082;50.870;0.022;2024-02-21T05:37:24;18.80;63.40
37806;DHT22;25082;50.870;0.022;2024-02-21T05:39:49;18.80;63.40
37806;DHT22;25082;50.870;0.022;2024-02-21T05:42:15;18.70;63.30
37806;DHT22;25082;50.870;0.022;2024-02-21T05:44:41;18.70;63.40
37806;DHT22;25082;50.870;0.022;2024-02-21T05:47:07;18.80;63.50
37806;DHT22;25082;50.870;0.022;2024-02-21T05:49:36;18.70;63.50
37806;DHT22;25082;50.870;0.022;2024-02-21T05:52:02;18.70;63.40
37806;DHT22;25082;50.870;0.022;2024-02-21T05:54:28;18.70;63.40
37806;DHT22;25082;50.870;0.022;2024-02-21T05:56:53;18.70;63.50
37806;DHT22;25082;50.870;0.022;2024-02-21T05:59:19;18.70;63.60
37806;DHT22;25082;50.870;0.022;2024-02-21T06:01:45;18.70;63.50
37806;DHT22;25082;50.870;0.022;2024-02-21T06:04:11;18.70;63.50
37806;DHT22;25082;50.870;0.022;2024-02-21T06:06:37;18.70;63.50
37806;DHT22;25082;50.870;0.022;2024-02-21T06:09:02;18.70;63.50
37806;DHT22;25082;50.870;0.022;2024-02-21T06:11:28;18.60;63.50
37806;DHT22;25082;50.870;0.022;2024-02-21T06:13:55;18.70;63.50
37806;DHT22;25082;50.870;0.022;2024-02-21T06:16:20;18.60;63.50
37806;DHT22;25082;50.870;0.022;2024-02-21T06:18:46;18.70;63.50
37806;DHT22;25082;50.870;0.022;2024-02-21T06:21:12;18.60;63.50
37806;DHT22;25082;50.870;0.022;2024-02-21T06:23:38;18.60;63.50
37806;DHT22;25082;50.870;0.022;2024-02-21T06:26:03;18.60;63.50
37806;DHT22;25082;50.870;0.022;2024-02-21T06:28:29;18.60;63.50
37806;DHT22;25082;50.870;0.022;2024-02-21T06:30:55;18.60;63.50
37806;DHT22;25082;50.870;0.022;2024-02-21T06:33:21;18.60;63.50
37806;DHT22;25082;50.870;0.022;2024-02-21T06:35:50;18.60;63.60
37806;DHT22;25082;50.870;0.022;2024-02-21T06:38:18;18.60;63.60
37806;DHT22;25082;50.870;0.022;2024-02-21T06:40:44;18.60;63.50
37806;DHT22;25082;50.870;0.022;2024-02-21T06:43:16;18.60;63.50
37806;DHT22;25082;50.870;0.022;2024-02-21T06:45:42;18.60;63.60
37806;DHT22;25082;50.870;0.022;2024-02-21T06:48:08;18.60;63.60
37806;DHT22;25082;50.870;0.022;2024-02-21T06:50:34;18.60;63.60
37806;DHT22;25082;50.870;0.022;2024-02-21T06:52:59;18.60;63.60
37806;DHT22;25082;50.870;0.022;2024-02-21T06:55:25;18.50;63.60
37806;DHT22;25082;50.870;0.022;2024-02-21T06:57:51;18.60;63.70
37806;DHT22;25082;50.870;0.022;2024-02-21T07:00:17;18.60;63.70
37806;DHT22;25082;50.870;0.022;2024-02-21T07:02:43;18.50;63.60
37806;DHT22;25082;50.870;0.022;2024-02-21T07:05:09;18.50;63.60
37806;DHT22;25082;50.870;0.022;2024-02-21T07:07:34;18.60;63.70
37806;DHT22;25082;50.870;0.022;2024-02-21T07:10:00;18.50;63.60
37806;DHT22;25082;50.870;0.022;2024-02-21T07:12:26;18.50;63.60
37806;DHT22;25082;50.870;0.022;2024-02-21T07:14:52;18.50;63.70
37806;DHT22;25082;50.870;0.022;2024-02-21T07:17:18;18.50;63.70
37806;DHT22;25082;50.870;0.022;2024-02-21T07:19:43;18.50;63.70
37806;DHT22;25082;50.870;0.022;2024-02-21T07:22:09;18.50;63.70
37806;DHT22;25082;50.870;0.022;2024-02-21T07:24:35;18.50;63.70
37806;DHT22;25082;50.870;0.022;2024-02-21T07:27:01;18.50;63.70
37806;DHT22;25082;50.870;0.022;2024-02-21T07:29:30;18.50;63.80
37806;DHT22;25082;50.870;0.022;2024-02-21T07:31:56;18.50;63.80
37806;DHT22;25082;50.870;0.022;2024-02-21T07:34:22;18.50;63.80
37806;DHT22;25082;50.870;0.022;2024-02-21T07:36:48;18.50;63.70
37806;DHT22;25082;50.870;0.022;2024-02-21T07:39:13;18.60;63.80
37806;DHT22;25082;50.870;0.022;2024-02-21T07:41:39;18.60;63.70
37806;DHT22;25082;50.870;0.022;2024-02-21T07:44:06;18.60;63.70
37806;DHT22;25082;50.870;0.022;2024-02-21T07:46:32;18.60;63.80
37806;DHT22;25082;50.870;0.022;2024-02-21T07:48:58;18.70;63.80
37806;DHT22;25082;50.870;0.022;2024-02-21T07:51:28;18.70;63.70
37806;DHT22;25082;50.870;0.022;2024-02-21T07:53:53;18.70;63.60
37806;DHT22;25082;50.870;0.022;2024-02-21T07:56:19;18.70;63.60
37806;DHT22;25082;50.870;0.022;2024-02-21T07:58:45;18.70;63.60
37806;DHT22;25082;50.870;0.022;2024-02-21T08:01:11;18.80;63.60
37806;DHT22;25082;50.870;0.022;2024-02-21T08:03:37;18.80;63.60
37806;DHT22;25082;50.870;0.022;2024-02-21T08:06:03;18.80;63.60
37806;DHT22;25082;50.870;0.022;2024-02-21T08:08:29;18.80;63.60
37806;DHT22;25082;50.870;0.022;2024-02-21T08:10:55;18.90;63.60
37806;DHT22;25082;50.870;0.022;2024-02-21T08:13:21;18.90;63.60
37806;DHT22;25082;50.870;0.022;2024-02-21T08:15:47;18.90;63.90
37806;DHT22;25082;50.870;0.022;2024-02-21T08:18:12;18.90;63.70
37806;DHT22;25082;50.870;0.022;2024-02-21T08:20:38;19.00;63.70
37806;DHT22;25082;50.870;0.022;2024-02-21T08:23:04;18.90;63.60
37806;DHT22;25082;50.870;0.022;2024-02-21T08:25:30;19.00;63.70
37806;DHT22;25082;50.870;0.022;2024-02-21T08:27:58;18.90;63.60
37806;DHT22;25082;50.870;0.022;2024-02-21T08:30:24;19.00;63.70
37806;DHT22;25082;50.870;0.022;2024-02-21T08:32:50;19.00;63.70
37806;DHT22;25082;50.870;0.022;2024-02-21T08:35:16;19.00;63.60
37806;DHT22;25082;50.870;0.022;2024-02-21T08:37:44;19.00;63.60
37806;DHT22;25082;50.870;0.022;2024-02-21T08:40:10;19.00;63.60
37806;DHT22;25082;50.870;0.022;2024-02-21T08:42:38;19.00;63.70
37806;DHT22;25082;50.870;0.022;2024-02-21T08:45:05;19.10;64.30
37806;DHT22;25082;50.870;0.022;2024-02-21T08:47:31;19.00;63.70
37806;DHT22;25082;50.870;0.022;2024-02-21T08:49:56;19.00;63.60
37806;DHT22;25082;50.870;0.022;2024-02-21T08:52:22;19.10;63.70
37806;DHT22;25082;50.870;0.022;2024-02-21T08:54:48;19.10;63.70
37806;DHT22;25082;50.870;0.022;2024-02-21T08:57:14;19.10;63.70
37806;DHT22;25082;50.870;0.022;2024-02-21T08:59:40;19.10;64.20
37806;DHT22;25082;50.870;0.022;2024-02-21T09:02:06;19.10;63.60
37806;DHT22;25082;50.870;0.022;2024-02-21T09:04:33;19.10;63.60
37806;DHT22;25082;50.870;0.022;2024-02-21T09:06:59;19.10;63.60
37806;DHT22;25082;50.870;0.022;2024-02-21T09:09:25;19.10;63.60
37806;DHT22;25082;50.870;0.022;2024-02-21T09:11:50;19.20;63.60
37806;DHT22;25082;50.870;0.022;2024-02-21T09:14:17;19.20;63.60
37806;DHT22;25082;50.870;0.022;2024-02-21T09:16:43;19.20;63.60
37806;DHT22;25082;50.870;0.022;2024-02-21T09:19:09;19.20;63.60
37806;DHT22;25082;50.870;0.022;2024-02-21T09:21:39;19.20;63.60
37806;DHT22;25082;50.870;0.022;2024-02-21T09:24:08;19.20;63.70
37806;DHT22;25082;50.870;0.022;2024-02-21T09:26:33;19.20;63.90
37806;DHT22;25082;50.870;0.022;2024-02-21T09:28:59;19.20;64.20
37806;DHT22;25082;50.870;0.022;2024-02-21T09:31:25;19.20;64.60
37806;DHT22;25082;50.870;0.022;2024-02-21T09:33:51;19.20;64.40
37806;DHT22;25082;50.870;0.022;2024-02-21T09:36:17;19.20;64.40
37806;DHT22;25082;50.870;0.022;2024-02-21T09:38:42;19.20;64.50
37806;DHT22;25082;50.870;0.022;2024-02-21T09:41:27;19.20;64.60
37806;DHT22;25082;50.870;0.022;2024-02-21T09:43:53;19.20;64.60
37806;DHT22;25082;50.870;0.022;2024-02-21T09:46:21;19.20;64.60
37806;DHT22;25082;50.870;0.022;2024-02-21T09:48:58;19.20;64.80
37806;DHT22;25082;50.870;0.022;2024-02-21T09:51:31;19.20;64.80
37806;DHT22;25082;50.870;0.022;2024-02-21T09:53:58;19.20;64.80
37806;DHT22;25082;50.870;0.022;2024-02-21T09:56:25;19.20;65.00
37806;DHT22;25082;50.870;0.022;2024-02-21T09:58:51;19.20;65.10
37806;DHT22;25082;50.870;0.022;2024-02-21T10:01:16;19.20;65.10
37806;DHT22;25082;50.870;0.022;2024-02-21T10:03:42;19.30;65.10
37806;DHT22;25082;50.870;0.022;2024-02-21T10:06:09;19.30;65.10
37806;DHT22;25082;50.870;0.022;2024-02-21T10:08:35;19.20;65.10
37806;DHT22;25082;50.870;0.022;2024-02-21T10:11:00;19.30;65.20
37806;DHT22;25082;50.870;0.022;2024-02-21T10:13:30;19.30;65.20
37806;DHT22;25082;50.870;0.022;2024-02-21T10:16:09;19.30;65.10
37806;DHT22;25082;50.870;0.022;2024-02-21T10:18:38;19.30;65.20
37806;DHT22;25082;50.870;0.022;2024-02-21T10:21:05;19.30;65.20
37806;DHT22;25082;50.870;0.022;2024-02-21T10:23:48;19.30;65.20
37806;DHT22;25082;50.870;0.022;2024-02-21T10:26:16;19.30;65.00
37806;DHT22;25082;50.870;0.022;2024-02-21T10:28:42;19.30;65.00
37806;DHT22;25082;50.870;0.022;2024-02-21T10:31:23;19.40;65.00
37806;DHT22;25082;50.870;0.022;2024-02-21T10:33:59;19.30;65.00
37806;DHT22;25082;50.870;0.022;2024-02-21T10:36:25;19.40;65.00
37806;DHT22;25082;50.870;0.022;2024-02-21T10:38:52;19.40;65.00
37806;DHT22;25082;50.870;0.022;2024-02-21T10:41:20;19.40;65.00
37806;DHT22;25082;50.870;0.022;2024-02-21T10:43:51;19.40;65.00
37806;DHT22;25082;50.870;0.022;2024-02-21T10:46:20;19.40;65.00
37806;DHT22;25082;50.870;0.022;2024-02-21T10:48:47;19.40;64.90
37806;DHT22;25082;50.870;0.022;2024-02-21T10:51:20;19.40;64.90
37806;DHT22;25082;50.870;0.022;2024-02-21T10:56:34;19.40;64.80
37806;DHT22;25082;50.870;0.022;2024-02-21T10:59:03;19.40;64.80
37806;DHT22;25082;50.870;0.022;2024-02-21T11:01:30;19.40;64.80
37806;DHT22;25082;50.870;0.022;2024-02-21T11:04:02;19.50;64.80
37806;DHT22;25082;50.870;0.022;2024-02-21T11:06:28;19.50;64.90
37806;DHT22;25082;50.870;0.022;2024-02-21T11:09:05;19.50;64.80
37806;DHT22;25082;50.870;0.022;2024-02-21T11:11:35;19.50;64.90
37806;DHT22;25082;50.870;0.022;2024-02-21T11:14:08;19.50;64.80
37806;DHT22;25082;50.870;0.022;2024-02-21T11:16:41;19.50;64.80
37806;DHT22;25082;50.870;0.022;2024-02-21T11:19:24;19.50;64.80
37806;DHT22;25082;50.870;0.022;2024-02-21T11:21:52;19.50;64.80
37806;DHT22;25082;50.870;0.022;2024-02-21T11:24:34;19.50;64.70
37806;DHT22;25082;50.870;0.022;2024-02-21T11:27:13;19.50;64.70
37806;DHT22;25082;50.870;0.022;2024-02-21T11:29:46;19.50;63.90
37806;DHT22;25082;50.870;0.022;2024-02-21T11:32:16;19.40;64.10
37806;DHT22;25082;50.870;0.022;2024-02-21T11:34:58;19.40;63.50
37806;DHT22;25082;50.870;0.022;2024-02-21T11:37:29;19.30;63.80
37806;DHT22;25082;50.870;0.022;2024-02-21T11:39:55;19.20;62.40
37806;DHT22;25082;50.870;0.022;2024-02-21T11:42:21;19.10;63.20
37806;DHT22;25082;50.870;0.022;2024-02-21T11:44:48;19.20;64.30
37806;DHT22;25082;50.870;0.022;2024-02-21T11:47:14;19.20;64.60
37806;DHT22;25082;50.870;0.022;2024-02-21T11:49:47;19.20;64.80
37806;DHT22;25082;50.870;0.022;2024-02-21T11:52:25;19.30;64.90
37806;DHT22;25082;50.870;0.022;2024-02-21T11:54:53;19.30;65.00
37806;DHT22;25082;50.870;0.022;2024-02-21T11:57:20;19.30;65.10
37806;DHT22;25082;50.870;0.022;2024-02-21T11:59:46;19.30;65.00
37806;DHT22;25082;50.870;0.022;2024-02-21T12:02:13;19.40;65.00
37806;DHT22;25082;50.870;0.022;2024-02-21T12:04:39;19.40;64.90
37806;DHT22;25082;50.870;0.022;2024-02-21T12:07:05;19.40;64.90
37806;DHT22;25082;50.870;0.022;2024-02-21T12:09:31;19.40;65.00
37806;DHT22;25082;50.870;0.022;2024-02-21T12:14:28;19.50;65.20
37806;DHT22;25082;50.870;0.022;2024-02-21T12:16:55;19.50;65.00
37806;DHT22;25082;50.870;0.022;2024-02-21T12:19:21;19.50;65.10
37806;DHT22;25082;50.870;0.022;2024-02-21T12:21:48;19.50;65.20
37806;DHT22;25082;50.870;0.022;2024-02-21T12:24:22;19.50;65.20
37806;DHT22;25082;50.870;0.022;2024-02-21T12:26:49;19.50;65.20
37806;DHT22;25082;50.870;0.022;2024-02-21T12:29:15;19.50;65.10
37806;DHT22;25082;50.870;0.022;2024-02-21T12:31:41;19.50;65.10
37806;DHT22;25082;50.870;0.022;2024-02-21T12:34:07;19.50;65.00
37806;DHT22;25082;50.870;0.022;2024-02-21T12:36:40;19.60;65.00
37806;DHT22;25082;50.870;0.022;2024-02-21T12:39:06;19.60;65.00
37806;DHT22;25082;50.870;0.022;2024-02-21T12:41:32;19.60;65.00
37806;DHT22;25082;50.870;0.022;2024-02-21T12:43:58;19.60;65.00
37806;DHT22;25082;50.870;0.022;2024-02-21T12:46:24;19.60;65.10
37806;DHT22;25082;50.870;0.022;2024-02-21T12:48:50;19.60;65.00
37806;DHT22;25082;50.870;0.022;2024-02-21T12:51:16;19.60;65.00
37806;DHT22;25082;50.870;0.022;2024-02-21T12:53:47;19.60;65.00
37806;DHT22;25082;50.870;0.022;2024-02-21T12:56:15;19.60;64.90
37806;DHT22;25082;50.870;0.022;2024-02-21T12:58:41;19.60;64.90
37806;DHT22;25082;50.870;0.022;2024-02-21T13:01:07;19.60;64.90
37806;DHT22;25082;50.870;0.022;2024-02-21T13:03:33;19.60;64.90
37806;DHT22;25082;50.870;0.022;2024-02-21T13:05:58;19.60;64.90
37806;DHT22;25082;50.870;0.022;2024-02-21T13:08:25;19.60;64.90
37806;DHT22;25082;50.870;0.022;2024-02-21T13:10:50;19.60;64.90
37806;DHT22;25082;50.870;0.022;2024-02-21T13:13:16;19.60;64.90
37806;DHT22;25082;50.870;0.022;2024-02-21T13:15:42;19.60;64.90
37806;DHT22;25082;50.870;0.022;2024-02-21T13:18:09;19.60;64.90
37806;DHT22;25082;50.870;0.022;2024-02-21T13:20:36;19.60;64.90
37806;DHT22;25082;50.870;0.022;2024-02-21T13:23:02;19.60;64.80
37806;DHT22;25082;50.870;0.022;2024-02-21T13:25:28;19.60;64.80
37806;DHT22;25082;50.870;0.022;2024-02-21T13:27:54;19.60;64.80
37806;DHT22;25082;50.870;0.022;2024-02-21T13:30:22;19.60;64.80
37806;DHT22;25082;50.870;0.022;2024-02-21T13:32:47;19.60;64.80
37806;DHT22;25082;50.870;0.022;2024-02-21T13:35:14;19.60;64.80
37806;DHT22;25082;50.870;0.022;2024-02-21T13:37:41;19.60;64.80
37806;DHT22;25082;50.870;0.022;2024-02-21T13:40:07;19.60;65.30
37806;DHT22;25082;50.870;0.022;2024-02-21T13:42:37;19.60;64.80
37806;DHT22;25082;50.870;0.022;2024-02-21T13:45:04;19.60;64.80
37806;DHT22;25082;50.870;0.022;2024-02-21T13:47:31;19.60;64.80
37806;DHT22;25082;50.870;0.022;2024-02-21T13:49:57;19.60;65.40
37806;DHT22;25082;50.870;0.022;2024-02-21T13:52:23;19.60;64.80
37806;DHT22;25082;50.870;0.022;2024-02-21T13:54:52;19.60;64.70
37806;DHT22;25082;50.870;0.022;2024-02-21T13:57:17;19.60;65.30
37806;DHT22;25082;50.870;0.022;2024-02-21T13:59:43;19.60;64.70
37806;DHT22;25082;50.870;0.022;2024-02-21T14:02:09;19.60;64.70
37806;DHT22;25082;50.870;0.022;2024-02-21T14:04:35;19.60;64.70
37806;DHT22;25082;50.870;0.022;2024-02-21T14:07:01;19.60;64.70
37806;DHT22;25082;50.870;0.022;2024-02-21T14:09:28;19.60;64.70
37806;DHT22;25082;50.870;0.022;2024-02-21T14:11:55;19.60;65.20
37806;DHT22;25082;50.870;0.022;2024-02-21T14:14:21;19.60;64.70
37806;DHT22;25082;50.870;0.022;2024-02-21T14:16:47;19.60;64.70
37806;DHT22;25082;50.870;0.022;2024-02-21T14:19:14;19.60;64.60
37806;DHT22;25082;50.870;0.022;2024-02-21T14:21:40;19.60;64.60
37806;DHT22;25082;50.870;0.022;2024-02-21T14:24:06;19.60;64.60
37806;DHT22;25082;50.870;0.022;2024-02-21T14:26:32;19.60;64.60
37806;DHT22;25082;50.870;0.022;2024-02-21T14:28:58;19.60;64.60
37806;DHT22;25082;50.870;0.022;2024-02-21T14:31:24;19.60;64.60
37806;DHT22;25082;50.870;0.022;2024-02-21T14:33:51;19.60;64.60
37806;DHT22;25082;50.870;0.022;2024-02-21T14:36:16;19.60;64.60
37806;DHT22;25082;50.870;0.022;2024-02-21T14:38:42;19.60;64.60
37806;DHT22;25082;50.870;0.022;2024-02-21T14:41:09;19.60;64.60
37806;DHT22;25082;50.870;0.022;2024-02-21T14:43:38;19.60;64.60
37806;DHT22;25082;50.870;0.022;2024-02-21T14:46:04;19.60;64.60
37806;DHT22;25082;50.870;0.022;2024-02-21T14:48:31;19.60;64.60
37806;DHT22;25082;50.870;0.022;2024-02-21T14:51:00;19.70;65.00
37806;DHT22;25082;50.870;0.022;2024-02-21T14:53:26;19.60;64.60
37806;DHT22;25082;50.870;0.022;2024-02-21T14:55:52;19.60;64.60
37806;DHT22;25082;50.870;0.022;2024-02-21T14:58:18;19.70;64.70
37806;DHT22;25082;50.870;0.022;2024-02-21T15:00:45;19.70;64.60
37806;DHT22;25082;50.870;0.022;2024-02-21T15:03:12;19.70;64.70
37806;DHT22;25082;50.870;0.022;2024-02-21T15:05:41;19.70;64.70
37806;DHT22;25082;50.870;0.022;2024-02-21T15:08:07;19.70;64.70
37806;DHT22;25082;50.870;0.022;2024-02-21T15:10:35;19.70;64.70
37806;DHT22;25082;50.870;0.022;2024-02-21T15:13:01;19.70;64.70
37806;DHT22;25082;50.870;0.022;2024-02-21T15:15:28;19.70;64.70
37806;DHT22;25082;50.870;0.022;2024-02-21T15:17:54;19.70;64.70
37806;DHT22;25082;50.870;0.022;2024-02-21T15:20:20;19.70;64.70
37806;DHT22;25082;50.870;0.022;2024-02-21T15:22:46;19.70;64.70
37806;DHT22;25082;50.870;0.022;2024-02-21T15:25:11;19.70;64.70
37806;DHT22;25082;50.870;0.022;2024-02-21T15:27:46;19.70;64.70
37806;DHT22;25082;50.870;0.022;2024-02-21T15:30:13;19.70;64.70
37806;DHT22;25082;50.870;0.022;2024-02-21T15:32:39;19.70;64.70